sensor_id;sensor_type;location;lat;lon;timestamp;temperature;humidity
70548;DHT22;58099;43.406;3.698;2022-11-15T00:01:26;14.80;99.90
70548;DHT22;58099;43.406;3.698;2022-11-15T00:03:52;14.70;99.90
70548;DHT22;58099;43.406;3.698;2022-11-15T00:06:17;14.70;99.90
70548;DHT22;58099;43.406;3.698;2022-11-15T00:08:43;14.70;99.90
70548;DHT22;58099;43.406;3.698;2022-11-15T00:11:11;14.70;99.90
70548;DHT22;58099;43.406;3.698;2022-11-15T00:13:37;14.70;99.90
70548;DHT22;58099;43.406;3.698;2022-11-15T00:16:03;14.70;99.90
70548;DHT22;58099;43.406;3.698;2022-11-15T00:18:30;14.70;99.90
70548;DHT22;58099;43.406;3.698;2022-11-15T00:21:02;14.70;99.90
70548;DHT22;58099;43.406;3.698;2022-11-15T00:23:28;14.70;99.90
70548;DHT22;58099;43.406;3.698;2022-11-15T00:25:57;14.70;99.90
70548;DHT22;58099;43.406;3.698;2022-11-15T00:28:24;14.70;99.90
70548;DHT22;58099;43.406;3.698;2022-11-15T00:30:49;14.80;99.90
70548;DHT22;58099;43.406;3.698;2022-11-15T00:33:15;14.70;99.90
70548;DHT22;58099;43.406;3.698;2022-11-15T00:35:41;14.70;99.90
70548;DHT22;58099;43.406;3.698;2022-11-15T00:38:06;14.70;99.90
70548;DHT22;58099;43.406;3.698;2022-11-15T00:40:32;14.80;99.90
70548;DHT22;58099;43.406;3.698;2022-11-15T00:42:58;14.70;99.90
70548;DHT22;58099;43.406;3.698;2022-11-15T00:45:24;14.70;99.90
70548;DHT22;58099;43.406;3.698;2022-11-15T00:47:50;14.80;99.90
70548;DHT22;58099;43.406;3.698;2022-11-15T00:50:16;14.70;99.90
70548;DHT22;58099;43.406;3.698;2022-11-15T00:52:42;14.80;99.90
70548;DHT22;58099;43.406;3.698;2022-11-15T00:55:15;14.80;99.90
70548;DHT22;58099;43.406;3.698;2022-11-15T00:57:41;14.70;99.90
70548;DHT22;58099;43.406;3.698;2022-11-15T01:00:07;14.70;99.90
70548;DHT22;58099;43.406;3.698;2022-11-15T01:02:34;14.70;99.90
70548;DHT22;58099;43.406;3.698;2022-11-15T01:05:00;14.70;99.90
70548;DHT22;58099;43.406;3.698;2022-11-15T01:07:26;14.70;99.90
70548;DHT22;58099;43.406;3.698;2022-11-15T01:09:51;14.70;99.90
70548;DHT22;58099;43.406;3.698;2022-11-15T01:12:17;14.70;99.90
70548;DHT22;58099;43.406;3.698;2022-11-15T01:14:43;14.70;99.90
70548;DHT22;58099;43.406;3.698;2022-11-15T01:17:08;14.70;99.90
70548;DHT22;58099;43.406;3.698;2022-11-15T01:19:34;14.70;99.90
70548;DHT22;58099;43.406;3.698;2022-11-15T01:22:00;14.70;99.90
70548;DHT22;58099;43.406;3.698;2022-11-15T01:24:25;14.70;99.90
70548;DHT22;58099;43.406;3.698;2022-11-15T01:26:51;14.60;99.90
70548;DHT22;58099;43.406;3.698;2022-11-15T01:29:18;14.60;99.90
70548;DHT22;58099;43.406;3.698;2022-11-15T01:31:44;14.60;99.90
70548;DHT22;58099;43.406;3.698;2022-11-15T01:34:10;14.60;99.90
70548;DHT22;58099;43.406;3.698;2022-11-15T01:36:36;14.60;99.90
70548;DHT22;58099;43.406;3.698;2022-11-15T01:39:02;14.60;99.90
70548;DHT22;58099;43.406;3.698;2022-11-15T01:41:32;14.60;99.90
70548;DHT22;58099;43.406;3.698;2022-11-15T01:47:12;14.60;99.90
70548;DHT22;58099;43.406;3.698;2022-11-15T01:50:04;14.60;99.90
70548;DHT22;58099;43.406;3.698;2022-11-15T01:52:33;14.60;99.90
70548;DHT22;58099;43.406;3.698;2022-11-15T01:55:24;14.60;99.90
70548;DHT22;58099;43.406;3.698;2022-11-15T01:57:56;14.60;99.90
70548;DHT22;58099;43.406;3.698;2022-11-15T02:00:23;14.60;99.90
70548;DHT22;58099;43.406;3.698;2022-11-15T02:02:49;14.60;99.90
70548;DHT22;58099;43.406;3.698;2022-11-15T02:05:16;14.50;99.90
70548;DHT22;58099;43.406;3.698;2022-11-15T02:07:42;14.50;99.90
70548;DHT22;58099;43.406;3.698;2022-11-15T02:10:42;14.50;99.90
70548;DHT22;58099;43.406;3.698;2022-11-15T02:13:08;14.50;99.90
70548;DHT22;58099;43.406;3.698;2022-11-15T02:15:40;14.50;99.90
70548;DHT22;58099;43.406;3.698;2022-11-15T02:18:24;14.50;99.90
70548;DHT22;58099;43.406;3.698;2022-11-15T02:21:37;14.50;99.90
70548;DHT22;58099;43.406;3.698;2022-11-15T02:32:17;14.40;99.90
70548;DHT22;58099;43.406;3.698;2022-11-15T02:43:36;14.40;99.90
70548;DHT22;58099;43.406;3.698;2022-11-15T02:46:48;14.40;99.90
70548;DHT22;58099;43.406;3.698;2022-11-15T02:49:34;14.40;99.90
70548;DHT22;58099;43.406;3.698;2022-11-15T02:52:01;14.40;99.90
70548;DHT22;58099;43.406;3.698;2022-11-15T02:54:30;14.40;99.90
70548;DHT22;58099;43.406;3.698;2022-11-15T02:57:04;14.40;99.90
70548;DHT22;58099;43.406;3.698;2022-11-15T03:00:03;14.30;99.90
70548;DHT22;58099;43.406;3.698;2022-11-15T03:08:54;14.30;99.90
70548;DHT22;58099;43.406;3.698;2022-11-15T03:11:23;14.40;99.90
70548;DHT22;58099;43.406;3.698;2022-11-15T03:13:59;14.40;99.90
70548;DHT22;58099;43.406;3.698;2022-11-15T03:19:13;14.40;99.90
70548;DHT22;58099;43.406;3.698;2022-11-15T03:21:40;14.40;99.90
70548;DHT22;58099;43.406;3.698;2022-11-15T03:24:08;14.30;99.90
70548;DHT22;58099;43.406;3.698;2022-11-15T03:26:36;14.30;99.90
70548;DHT22;58099;43.406;3.698;2022-11-15T03:29:15;14.30;99.90
70548;DHT22;58099;43.406;3.698;2022-11-15T03:31:46;14.30;99.90
70548;DHT22;58099;43.406;3.698;2022-11-15T03:37:21;14.30;99.90
70548;DHT22;58099;43.406;3.698;2022-11-15T03:39:47;14.30;99.90
70548;DHT22;58099;43.406;3.698;2022-11-15T03:45:08;14.30;99.90
70548;DHT22;58099;43.406;3.698;2022-11-15T03:47:45;14.30;99.90
70548;DHT22;58099;43.406;3.698;2022-11-15T03:50:18;14.40;99.90
70548;DHT22;58099;43.406;3.698;2022-11-15T03:52:48;14.40;99.90
70548;DHT22;58099;43.406;3.698;2022-11-15T03:55:19;14.40;99.90
70548;DHT22;58099;43.406;3.698;2022-11-15T03:57:45;14.30;99.90
70548;DHT22;58099;43.406;3.698;2022-11-15T04:00:11;14.40;99.90
70548;DHT22;58099;43.406;3.698;2022-11-15T04:02:37;14.40;99.90
70548;DHT22;58099;43.406;3.698;2022-11-15T04:05:03;14.40;99.90
70548;DHT22;58099;43.406;3.698;2022-11-15T04:07:29;14.40;99.90
70548;DHT22;58099;43.406;3.698;2022-11-15T04:09:55;14.40;99.90
70548;DHT22;58099;43.406;3.698;2022-11-15T04:12:35;14.40;99.90
70548;DHT22;58099;43.406;3.698;2022-11-15T04:15:04;14.50;99.90
70548;DHT22;58099;43.406;3.698;2022-11-15T04:17:51;14.40;99.90
70548;DHT22;58099;43.406;3.698;2022-11-15T04:20:20;14.40;99.90
70548;DHT22;58099;43.406;3.698;2022-11-15T04:23:10;14.50;99.90
70548;DHT22;58099;43.406;3.698;2022-11-15T04:25:56;14.50;99.90
70548;DHT22;58099;43.406;3.698;2022-11-15T04:28:23;14.40;99.90
70548;DHT22;58099;43.406;3.698;2022-11-15T04:30:49;14.50;99.90
70548;DHT22;58099;43.406;3.698;2022-11-15T04:33:15;14.50;99.90
70548;DHT22;58099;43.406;3.698;2022-11-15T04:35:42;14.50;99.90
70548;DHT22;58099;43.406;3.698;2022-11-15T04:38:09;14.40;99.90
70548;DHT22;58099;43.406;3.698;2022-11-15T04:40:36;14.40;99.90
70548;DHT22;58099;43.406;3.698;2022-11-15T04:43:03;14.50;99.90
70548;DHT22;58099;43.406;3.698;2022-11-15T04:45:28;14.40;99.90
70548;DHT22;58099;43.406;3.698;2022-11-15T04:47:55;14.40;99.90
70548;DHT22;58099;43.406;3.698;2022-11-15T04:50:21;14.40;99.90
70548;DHT22;58099;43.406;3.698;2022-11-15T04:52:52;14.40;99.90
70548;DHT22;58099;43.406;3.698;2022-11-15T04:55:18;14.40;99.90
70548;DHT22;58099;43.406;3.698;2022-11-15T04:57:43;14.40;99.90
70548;DHT22;58099;43.406;3.698;2022-11-15T05:00:12;14.40;99.90
70548;DHT22;58099;43.406;3.698;2022-11-15T05:02:38;14.40;99.90
70548;DHT22;58099;43.406;3.698;2022-11-15T05:05:23;14.40;99.90
70548;DHT22;58099;43.406;3.698;2022-11-15T05:07:50;14.40;99.90
70548;DHT22;58099;43.406;3.698;2022-11-15T05:10:16;14.40;99.90
70548;DHT22;58099;43.406;3.698;2022-11-15T05:12:41;14.40;99.90
70548;DHT22;58099;43.406;3.698;2022-11-15T05:15:07;14.40;99.90
70548;DHT22;58099;43.406;3.698;2022-11-15T05:17:33;14.50;99.90
70548;DHT22;58099;43.406;3.698;2022-11-15T05:19:59;14.40;99.90
70548;DHT22;58099;43.406;3.698;2022-11-15T05:22:25;14.40;99.90
70548;DHT22;58099;43.406;3.698;2022-11-15T05:24:51;14.40;99.90
70548;DHT22;58099;43.406;3.698;2022-11-15T05:27:17;14.40;99.90
70548;DHT22;58099;43.406;3.698;2022-11-15T05:29:42;14.40;99.90
70548;DHT22;58099;43.406;3.698;2022-11-15T05:32:09;14.40;99.90
70548;DHT22;58099;43.406;3.698;2022-11-15T05:34:35;14.40;99.90
70548;DHT22;58099;43.406;3.698;2022-11-15T05:37:01;14.40;99.90
70548;DHT22;58099;43.406;3.698;2022-11-15T05:39:28;14.40;99.90
70548;DHT22;58099;43.406;3.698;2022-11-15T05:41:57;14.40;99.90
70548;DHT22;58099;43.406;3.698;2022-11-15T05:44:25;14.40;99.90
70548;DHT22;58099;43.406;3.698;2022-11-15T05:46:52;14.40;99.90
70548;DHT22;58099;43.406;3.698;2022-11-15T05:49:22;14.40;99.90
70548;DHT22;58099;43.406;3.698;2022-11-15T05:51:49;14.40;99.90
70548;DHT22;58099;43.406;3.698;2022-11-15T05:54:16;14.40;99.90
70548;DHT22;58099;43.406;3.698;2022-11-15T05:56:43;14.40;99.90
70548;DHT22;58099;43.406;3.698;2022-11-15T05:59:09;14.40;99.90
70548;DHT22;58099;43.406;3.698;2022-11-15T06:01:36;14.40;99.90
70548;DHT22;58099;43.406;3.698;2022-11-15T06:04:02;14.40;99.90
70548;DHT22;58099;43.406;3.698;2022-11-15T06:06:28;14.40;99.90
70548;DHT22;58099;43.406;3.698;2022-11-15T06:08:54;14.40;99.90
70548;DHT22;58099;43.406;3.698;2022-11-15T06:11:20;14.40;99.90
70548;DHT22;58099;43.406;3.698;2022-11-15T06:13:46;14.40;99.90
70548;DHT22;58099;43.406;3.698;2022-11-15T06:16:11;14.40;99.90
70548;DHT22;58099;43.406;3.698;2022-11-15T06:18:37;14.40;99.90
70548;DHT22;58099;43.406;3.698;2022-11-15T06:21:04;14.40;99.90
70548;DHT22;58099;43.406;3.698;2022-11-15T06:23:34;14.40;99.90
70548;DHT22;58099;43.406;3.698;2022-11-15T06:26:01;14.40;99.90
70548;DHT22;58099;43.406;3.698;2022-11-15T06:28:31;14.40;99.90
70548;DHT22;58099;43.406;3.698;2022-11-15T06:31:08;14.40;99.90
70548;DHT22;58099;43.406;3.698;2022-11-15T06:33:36;14.40;99.90
70548;DHT22;58099;43.406;3.698;2022-11-15T06:36:12;14.40;99.90
70548;DHT22;58099;43.406;3.698;2022-11-15T06:38:43;14.50;99.90
70548;DHT22;58099;43.406;3.698;2022-11-15T06:41:10;14.50;99.90
70548;DHT22;58099;43.406;3.698;2022-11-15T06:43:36;14.50;99.90
70548;DHT22;58099;43.406;3.698;2022-11-15T06:46:03;14.50;99.90
70548;DHT22;58099;43.406;3.698;2022-11-15T06:48:30;14.50;99.90
70548;DHT22;58099;43.406;3.698;2022-11-15T06:50:58;14.50;99.90
70548;DHT22;58099;43.406;3.698;2022-11-15T06:53:24;14.60;99.90
70548;DHT22;58099;43.406;3.698;2022-11-15T06:55:50;14.60;99.90
70548;DHT22;58099;43.406;3.698;2022-11-15T06:58:16;14.60;99.90
70548;DHT22;58099;43.406;3.698;2022-11-15T07:00:42;14.60;99.90
70548;DHT22;58099;43.406;3.698;2022-11-15T07:03:08;14.60;99.90
70548;DHT22;58099;43.406;3.698;2022-11-15T07:05:35;14.60;99.90
70548;DHT22;58099;43.406;3.698;2022-11-15T07:08:01;14.70;99.90
70548;DHT22;58099;43.406;3.698;2022-11-15T07:10:27;14.60;99.90
70548;DHT22;58099;43.406;3.698;2022-11-15T07:12:54;14.60;99.90
70548;DHT22;58099;43.406;3.698;2022-11-15T07:15:24;14.60;99.90
70548;DHT22;58099;43.406;3.698;2022-11-15T07:17:50;14.70;99.90
70548;DHT22;58099;43.406;3.698;2022-11-15T07:20:16;14.80;99.90
70548;DHT22;58099;43.406;3.698;2022-11-15T07:22:43;14.70;99.90
70548;DHT22;58099;43.406;3.698;2022-11-15T07:25:11;14.70;99.90
70548;DHT22;58099;43.406;3.698;2022-11-15T07:27:36;14.80;99.90
70548;DHT22;58099;43.406;3.698;2022-11-15T07:30:03;14.80;99.90
70548;DHT22;58099;43.406;3.698;2022-11-15T07:32:29;14.90;99.90
70548;DHT22;58099;43.406;3.698;2022-11-15T07:34:55;14.90;99.90
70548;DHT22;58099;43.406;3.698;2022-11-15T07:37:20;15.00;99.90
70548;DHT22;58099;43.406;3.698;2022-11-15T07:39:46;15.10;99.90
70548;DHT22;58099;43.406;3.698;2022-11-15T07:42:12;15.10;99.90
70548;DHT22;58099;43.406;3.698;2022-11-15T07:45:01;15.20;99.90
70548;DHT22;58099;43.406;3.698;2022-11-15T07:47:28;15.20;99.90
70548;DHT22;58099;43.406;3.698;2022-11-15T07:49:54;15.30;99.90
70548;DHT22;58099;43.406;3.698;2022-11-15T07:52:20;15.30;99.90
70548;DHT22;58099;43.406;3.698;2022-11-15T07:54:46;15.30;99.90
70548;DHT22;58099;43.406;3.698;2022-11-15T07:57:11;15.40;99.90
70548;DHT22;58099;43.406;3.698;2022-11-15T07:59:37;15.40;99.90
70548;DHT22;58099;43.406;3.698;2022-11-15T08:02:03;15.40;99.90
70548;DHT22;58099;43.406;3.698;2022-11-15T08:04:29;15.40;99.90
70548;DHT22;58099;43.406;3.698;2022-11-15T08:06:54;15.40;99.90
70548;DHT22;58099;43.406;3.698;2022-11-15T08:09:20;15.40;99.90
70548;DHT22;58099;43.406;3.698;2022-11-15T08:11:45;15.40;99.90
70548;DHT22;58099;43.406;3.698;2022-11-15T08:14:11;15.50;99.90
70548;DHT22;58099;43.406;3.698;2022-11-15T08:16:38;15.50;99.90
70548;DHT22;58099;43.406;3.698;2022-11-15T08:19:03;15.40;99.90
70548;DHT22;58099;43.406;3.698;2022-11-15T08:21:29;15.50;99.90
70548;DHT22;58099;43.406;3.698;2022-11-15T08:23:55;15.50;99.90
70548;DHT22;58099;43.406;3.698;2022-11-15T08:26:20;15.50;99.90
70548;DHT22;58099;43.406;3.698;2022-11-15T08:28:47;15.50;99.90
70548;DHT22;58099;43.406;3.698;2022-11-15T08:31:14;15.50;99.90
70548;DHT22;58099;43.406;3.698;2022-11-15T08:33:42;15.40;99.90
70548;DHT22;58099;43.406;3.698;2022-11-15T08:36:16;15.40;99.90
70548;DHT22;58099;43.406;3.698;2022-11-15T08:38:42;15.40;99.90
70548;DHT22;58099;43.406;3.698;2022-11-15T08:41:25;15.40;99.90
70548;DHT22;58099;43.406;3.698;2022-11-15T08:43:52;15.50;99.90
70548;DHT22;58099;43.406;3.698;2022-11-15T08:46:17;15.40;99.90
70548;DHT22;58099;43.406;3.698;2022-11-15T08:48:44;15.40;99.90
70548;DHT22;58099;43.406;3.698;2022-11-15T08:51:10;15.40;99.90
70548;DHT22;58099;43.406;3.698;2022-11-15T08:53:35;15.40;99.90
70548;DHT22;58099;43.406;3.698;2022-11-15T08:56:02;15.40;99.90
70548;DHT22;58099;43.406;3.698;2022-11-15T08:58:28;15.40;99.90
70548;DHT22;58099;43.406;3.698;2022-11-15T09:00:54;15.40;99.90
70548;DHT22;58099;43.406;3.698;2022-11-15T09:03:20;15.40;99.90
70548;DHT22;58099;43.406;3.698;2022-11-15T09:05:45;15.40;99.90
70548;DHT22;58099;43.406;3.698;2022-11-15T09:08:11;15.40;99.90
70548;DHT22;58099;43.406;3.698;2022-11-15T09:10:41;15.50;99.90
70548;DHT22;58099;43.406;3.698;2022-11-15T09:13:06;15.50;99.90
70548;DHT22;58099;43.406;3.698;2022-11-15T09:15:32;15.60;99.90
70548;DHT22;58099;43.406;3.698;2022-11-15T09:17:58;15.60;99.90
70548;DHT22;58099;43.406;3.698;2022-11-15T09:20:24;15.60;99.90
70548;DHT22;58099;43.406;3.698;2022-11-15T09:22:50;15.60;99.90
70548;DHT22;58099;43.406;3.698;2022-11-15T09:25:16;15.70;99.90
70548;DHT22;58099;43.406;3.698;2022-11-15T09:27:42;15.70;99.90
70548;DHT22;58099;43.406;3.698;2022-11-15T09:30:07;15.70;99.90
70548;DHT22;58099;43.406;3.698;2022-11-15T09:32:33;15.80;99.90
70548;DHT22;58099;43.406;3.698;2022-11-15T09:34:59;15.70;99.90
70548;DHT22;58099;43.406;3.698;2022-11-15T09:37:25;15.80;99.90
70548;DHT22;58099;43.406;3.698;2022-11-15T09:39:50;15.80;99.90
70548;DHT22;58099;43.406;3.698;2022-11-15T09:45:52;15.80;99.90
70548;DHT22;58099;43.406;3.698;2022-11-15T09:51:04;15.80;99.90
70548;DHT22;58099;43.406;3.698;2022-11-15T09:53:48;15.90;99.90
70548;DHT22;58099;43.406;3.698;2022-11-15T09:56:25;15.90;99.90
70548;DHT22;58099;43.406;3.698;2022-11-15T09:59:04;15.90;99.90
70548;DHT22;58099;43.406;3.698;2022-11-15T10:01:56;16.00;99.90
70548;DHT22;58099;43.406;3.698;2022-11-15T10:04:25;15.90;99.90
70548;DHT22;58099;43.406;3.698;2022-11-15T10:09:41;16.00;99.90
70548;DHT22;58099;43.406;3.698;2022-11-15T10:12:10;16.10;99.90
70548;DHT22;58099;43.406;3.698;2022-11-15T10:14:37;16.00;99.90
70548;DHT22;58099;43.406;3.698;2022-11-15T10:27:29;16.40;99.90
70548;DHT22;58099;43.406;3.698;2022-11-15T10:29:55;16.40;99.90
70548;DHT22;58099;43.406;3.698;2022-11-15T10:32:21;16.40;99.90
70548;DHT22;58099;43.406;3.698;2022-11-15T10:34:48;16.50;99.90
70548;DHT22;58099;43.406;3.698;2022-11-15T10:37:14;16.40;99.90
70548;DHT22;58099;43.406;3.698;2022-11-15T10:39:39;16.50;99.90
70548;DHT22;58099;43.406;3.698;2022-11-15T10:42:26;16.50;99.90
70548;DHT22;58099;43.406;3.698;2022-11-15T10:44:52;16.60;99.90
70548;DHT22;58099;43.406;3.698;2022-11-15T10:47:24;16.80;99.90
70548;DHT22;58099;43.406;3.698;2022-11-15T10:52:22;17.50;99.90
70548;DHT22;58099;43.406;3.698;2022-11-15T10:57:52;18.20;99.90
70548;DHT22;58099;43.406;3.698;2022-11-15T11:08:02;19.80;99.90
70548;DHT22;58099;43.406;3.698;2022-11-15T11:10:28;19.60;99.90
70548;DHT22;58099;43.406;3.698;2022-11-15T11:12:54;19.40;99.90
70548;DHT22;58099;43.406;3.698;2022-11-15T11:15:20;19.40;99.90
70548;DHT22;58099;43.406;3.698;2022-11-15T11:18:07;19.40;99.90
70548;DHT22;58099;43.406;3.698;2022-11-15T11:20:46;19.70;99.90
70548;DHT22;58099;43.406;3.698;2022-11-15T11:23:31;19.70;99.90
70548;DHT22;58099;43.406;3.698;2022-11-15T11:31:58;20.50;99.90
70548;DHT22;58099;43.406;3.698;2022-11-15T11:34:47;20.70;99.90
70548;DHT22;58099;43.406;3.698;2022-11-15T11:43:08;20.60;99.90
70548;DHT22;58099;43.406;3.698;2022-11-15T11:48:46;19.80;99.90
70548;DHT22;58099;43.406;3.698;2022-11-15T11:51:23;19.60;99.90
70548;DHT22;58099;43.406;3.698;2022-11-15T11:56:28;19.30;99.90
70548;DHT22;58099;43.406;3.698;2022-11-15T11:58:57;19.30;99.90
70548;DHT22;58099;43.406;3.698;2022-11-15T12:01:31;19.10;99.90
70548;DHT22;58099;43.406;3.698;2022-11-15T12:04:08;19.00;99.90
70548;DHT22;58099;43.406;3.698;2022-11-15T12:06:45;19.00;99.90
70548;DHT22;58099;43.406;3.698;2022-11-15T12:09:31;18.90;99.90
70548;DHT22;58099;43.406;3.698;2022-11-15T12:15:17;18.90;99.90
70548;DHT22;58099;43.406;3.698;2022-11-15T12:17:44;18.90;99.90
70548;DHT22;58099;43.406;3.698;2022-11-15T12:20:34;18.80;99.90
70548;DHT22;58099;43.406;3.698;2022-11-15T12:23:17;18.80;99.90
70548;DHT22;58099;43.406;3.698;2022-11-15T12:25:50;18.80;99.90
70548;DHT22;58099;43.406;3.698;2022-11-15T12:28:42;18.80;99.90
70548;DHT22;58099;43.406;3.698;2022-11-15T12:31:36;18.90;99.90
70548;DHT22;58099;43.406;3.698;2022-11-15T12:36:43;18.90;99.90
70548;DHT22;58099;43.406;3.698;2022-11-15T12:39:14;18.90;99.90
70548;DHT22;58099;43.406;3.698;2022-11-15T12:59:56;19.00;99.90
70548;DHT22;58099;43.406;3.698;2022-11-15T13:02:36;18.90;99.90
70548;DHT22;58099;43.406;3.698;2022-11-15T13:13:03;18.90;99.90
70548;DHT22;58099;43.406;3.698;2022-11-15T13:15:34;18.90;99.90
70548;DHT22;58099;43.406;3.698;2022-11-15T13:18:30;19.00;99.90
70548;DHT22;58099;43.406;3.698;2022-11-15T13:20:57;18.90;99.90
70548;DHT22;58099;43.406;3.698;2022-11-15T13:23:22;19.00;99.90
70548;DHT22;58099;43.406;3.698;2022-11-15T13:26:13;19.10;99.90
70548;DHT22;58099;43.406;3.698;2022-11-15T13:28:45;19.20;99.90
70548;DHT22;58099;43.406;3.698;2022-11-15T13:31:22;19.20;99.90
70548;DHT22;58099;43.406;3.698;2022-11-15T13:33:49;19.20;99.90
70548;DHT22;58099;43.406;3.698;2022-11-15T13:36:20;19.20;99.90
70548;DHT22;58099;43.406;3.698;2022-11-15T13:38:55;19.20;99.90
70548;DHT22;58099;43.406;3.698;2022-11-15T13:41:32;19.10;99.90
70548;DHT22;58099;43.406;3.698;2022-11-15T13:44:00;19.10;99.90
70548;DHT22;58099;43.406;3.698;2022-11-15T13:46:32;19.10;99.90
70548;DHT22;58099;43.406;3.698;2022-11-15T13:49:03;19.20;99.90
70548;DHT22;58099;43.406;3.698;2022-11-15T13:51:47;19.20;99.90
70548;DHT22;58099;43.406;3.698;2022-11-15T13:54:21;19.20;99.90
70548;DHT22;58099;43.406;3.698;2022-11-15T13:56:53;19.20;99.90
70548;DHT22;58099;43.406;3.698;2022-11-15T13:59:27;19.20;99.90
70548;DHT22;58099;43.406;3.698;2022-11-15T14:01:59;19.20;99.90
70548;DHT22;58099;43.406;3.698;2022-11-15T14:04:28;19.30;99.90
70548;DHT22;58099;43.406;3.698;2022-11-15T14:07:00;19.30;99.90
70548;DHT22;58099;43.406;3.698;2022-11-15T14:09:37;19.50;99.90
70548;DHT22;58099;43.406;3.698;2022-11-15T14:12:29;19.60;99.90
70548;DHT22;58099;43.406;3.698;2022-11-15T14:14:56;19.80;99.90
70548;DHT22;58099;43.406;3.698;2022-11-15T14:19:54;20.50;99.90
70548;DHT22;58099;43.406;3.698;2022-11-15T14:22:25;21.00;99.90
70548;DHT22;58099;43.406;3.698;2022-11-15T14:25:14;20.90;99.90
70548;DHT22;58099;43.406;3.698;2022-11-15T14:27:43;20.70;99.90
70548;DHT22;58099;43.406;3.698;2022-11-15T14:30:16;20.60;99.90
70548;DHT22;58099;43.406;3.698;2022-11-15T14:32:49;20.80;99.90
70548;DHT22;58099;43.406;3.698;2022-11-15T14:35:21;20.80;99.90
70548;DHT22;58099;43.406;3.698;2022-11-15T14:37:47;20.70;99.90
70548;DHT22;58099;43.406;3.698;2022-11-15T14:40:18;20.40;99.90
70548;DHT22;58099;43.406;3.698;2022-11-15T14:42:45;20.20;99.90
70548;DHT22;58099;43.406;3.698;2022-11-15T14:45:21;20.20;99.90
70548;DHT22;58099;43.406;3.698;2022-11-15T14:47:48;20.10;99.90
70548;DHT22;58099;43.406;3.698;2022-11-15T14:50:16;20.20;99.90
70548;DHT22;58099;43.406;3.698;2022-11-15T14:52:43;20.30;99.90
70548;DHT22;58099;43.406;3.698;2022-11-15T14:55:21;20.40;99.90
70548;DHT22;58099;43.406;3.698;2022-11-15T14:57:47;20.40;99.90
70548;DHT22;58099;43.406;3.698;2022-11-15T15:00:13;20.30;99.90
70548;DHT22;58099;43.406;3.698;2022-11-15T15:02:41;20.20;99.90
70548;DHT22;58099;43.406;3.698;2022-11-15T15:05:22;20.10;99.90
70548;DHT22;58099;43.406;3.698;2022-11-15T15:07:49;20.10;99.90
70548;DHT22;58099;43.406;3.698;2022-11-15T15:10:16;20.20;99.90
70548;DHT22;58099;43.406;3.698;2022-11-15T15:12:42;20.20;99.90
70548;DHT22;58099;43.406;3.698;2022-11-15T15:15:33;20.10;99.90
70548;DHT22;58099;43.406;3.698;2022-11-15T15:18:00;20.10;99.90
70548;DHT22;58099;43.406;3.698;2022-11-15T15:20:26;20.00;99.90
70548;DHT22;58099;43.406;3.698;2022-11-15T15:22:52;20.00;99.90
70548;DHT22;58099;43.406;3.698;2022-11-15T15:25:27;20.00;99.90
70548;DHT22;58099;43.406;3.698;2022-11-15T15:27:53;19.90;99.90
70548;DHT22;58099;43.406;3.698;2022-11-15T15:30:20;19.80;99.90
70548;DHT22;58099;43.406;3.698;2022-11-15T15:32:46;19.70;99.90
70548;DHT22;58099;43.406;3.698;2022-11-15T15:35:13;19.60;99.90
70548;DHT22;58099;43.406;3.698;2022-11-15T15:37:40;19.60;99.90
70548;DHT22;58099;43.406;3.698;2022-11-15T15:40:21;19.60;99.90
70548;DHT22;58099;43.406;3.698;2022-11-15T15:42:48;19.50;99.90
70548;DHT22;58099;43.406;3.698;2022-11-15T15:45:15;19.40;99.90
70548;DHT22;58099;43.406;3.698;2022-11-15T15:47:42;19.20;99.90
70548;DHT22;58099;43.406;3.698;2022-11-15T15:50:34;19.20;99.90
70548;DHT22;58099;43.406;3.698;2022-11-15T15:53:02;19.20;99.90
70548;DHT22;58099;43.406;3.698;2022-11-15T15:55:29;19.10;99.90
70548;DHT22;58099;43.406;3.698;2022-11-15T15:57:55;19.00;99.90
70548;DHT22;58099;43.406;3.698;2022-11-15T16:00:22;18.90;99.90
70548;DHT22;58099;43.406;3.698;2022-11-15T16:02:50;18.80;99.90
70548;DHT22;58099;43.406;3.698;2022-11-15T16:05:16;18.80;99.90
70548;DHT22;58099;43.406;3.698;2022-11-15T16:07:43;18.70;99.90
70548;DHT22;58099;43.406;3.698;2022-11-15T16:10:27;18.70;99.90
70548;DHT22;58099;43.406;3.698;2022-11-15T16:12:55;18.70;99.90
70548;DHT22;58099;43.406;3.698;2022-11-15T16:15:22;18.70;99.90
70548;DHT22;58099;43.406;3.698;2022-11-15T16:17:53;18.60;99.90
70548;DHT22;58099;43.406;3.698;2022-11-15T16:20:37;18.50;99.90
70548;DHT22;58099;43.406;3.698;2022-11-15T16:23:07;18.50;99.90
70548;DHT22;58099;43.406;3.698;2022-11-15T16:25:38;18.50;99.90
70548;DHT22;58099;43.406;3.698;2022-11-15T16:28:07;18.40;99.90
70548;DHT22;58099;43.406;3.698;2022-11-15T16:30:34;18.40;99.90
70548;DHT22;58099;43.406;3.698;2022-11-15T16:33:00;18.30;99.90
70548;DHT22;58099;43.406;3.698;2022-11-15T16:35:26;18.30;99.90
70548;DHT22;58099;43.406;3.698;2022-11-15T16:37:52;18.30;99.90
70548;DHT22;58099;43.406;3.698;2022-11-15T16:40:30;18.30;99.90
70548;DHT22;58099;43.406;3.698;2022-11-15T16:42:58;18.30;99.90
70548;DHT22;58099;43.406;3.698;2022-11-15T16:45:24;18.30;99.90
70548;DHT22;58099;43.406;3.698;2022-11-15T16:47:52;18.20;99.90
70548;DHT22;58099;43.406;3.698;2022-11-15T16:50:30;18.10;99.90
70548;DHT22;58099;43.406;3.698;2022-11-15T16:52:58;18.10;99.90
70548;DHT22;58099;43.406;3.698;2022-11-15T16:55:28;18.10;99.90
70548;DHT22;58099;43.406;3.698;2022-11-15T16:57:55;18.00;99.90
70548;DHT22;58099;43.406;3.698;2022-11-15T17:00:23;18.00;99.90
70548;DHT22;58099;43.406;3.698;2022-11-15T17:02:50;18.00;99.90
70548;DHT22;58099;43.406;3.698;2022-11-15T17:05:19;18.00;99.90
70548;DHT22;58099;43.406;3.698;2022-11-15T17:07:47;18.00;99.90
70548;DHT22;58099;43.406;3.698;2022-11-15T17:10:19;18.00;99.90
70548;DHT22;58099;43.406;3.698;2022-11-15T17:12:45;18.10;99.90
70548;DHT22;58099;43.406;3.698;2022-11-15T17:15:12;18.00;99.90
70548;DHT22;58099;43.406;3.698;2022-11-15T17:17:39;18.00;99.90
70548;DHT22;58099;43.406;3.698;2022-11-15T17:20:05;18.00;99.90
70548;DHT22;58099;43.406;3.698;2022-11-15T17:22:52;18.00;99.90
70548;DHT22;58099;43.406;3.698;2022-11-15T17:25:19;18.00;99.90
70548;DHT22;58099;43.406;3.698;2022-11-15T17:27:45;17.90;99.90
70548;DHT22;58099;43.406;3.698;2022-11-15T17:30:12;17.90;99.90
70548;DHT22;58099;43.406;3.698;2022-11-15T17:32:40;17.90;99.90
70548;DHT22;58099;43.406;3.698;2022-11-15T17:35:06;17.90;99.90
70548;DHT22;58099;43.406;3.698;2022-11-15T17:37:33;17.90;99.90
70548;DHT22;58099;43.406;3.698;2022-11-15T17:39:59;17.80;99.90
70548;DHT22;58099;43.406;3.698;2022-11-15T17:42:24;17.80;99.90
70548;DHT22;58099;43.406;3.698;2022-11-15T17:44:50;17.70;99.90
70548;DHT22;58099;43.406;3.698;2022-11-15T17:47:16;17.70;99.90